sensor_id;sensor_type;location;lat;lon;timestamp;temperature;humidity
48728;DHT22;34527;45.618;5.130;2023-11-21T00:00:00;8.50;99.90
48728;DHT22;34527;45.618;5.130;2023-11-21T00:02:26;8.50;99.90
48728;DHT22;34527;45.618;5.130;2023-11-21T00:04:52;8.50;99.90
48728;DHT22;34527;45.618;5.130;2023-11-21T00:07:18;8.40;99.90
48728;DHT22;34527;45.618;5.130;2023-11-21T00:09:43;8.40;99.90
48728;DHT22;34527;45.618;5.130;2023-11-21T00:12:09;8.40;99.90
48728;DHT22;34527;45.618;5.130;2023-11-21T00:14:36;8.40;99.90
48728;DHT22;34527;45.618;5.130;2023-11-21T00:17:02;8.50;99.90
48728;DHT22;34527;45.618;5.130;2023-11-21T00:19:28;8.40;99.90
48728;DHT22;34527;45.618;5.130;2023-11-21T00:21:53;8.30;99.90
48728;DHT22;34527;45.618;5.130;2023-11-21T00:24:19;8.30;99.90
48728;DHT22;34527;45.618;5.130;2023-11-21T00:26:45;8.30;99.90
48728;DHT22;34527;45.618;5.130;2023-11-21T00:29:10;8.30;99.90
48728;DHT22;34527;45.618;5.130;2023-11-21T00:31:36;8.30;99.90
48728;DHT22;34527;45.618;5.130;2023-11-21T00:34:05;8.20;99.90
48728;DHT22;34527;45.618;5.130;2023-11-21T00:36:31;8.20;99.90
48728;DHT22;34527;45.618;5.130;2023-11-21T00:38:58;8.10;99.90
48728;DHT22;34527;45.618;5.130;2023-11-21T00:41:24;8.10;99.90
48728;DHT22;34527;45.618;5.130;2023-11-21T00:43:53;8.20;99.90
48728;DHT22;34527;45.618;5.130;2023-11-21T00:46:19;8.10;99.90
48728;DHT22;34527;45.618;5.130;2023-11-21T00:48:44;8.00;99.90
48728;DHT22;34527;45.618;5.130;2023-11-21T00:51:10;7.90;99.90
48728;DHT22;34527;45.618;5.130;2023-11-21T00:53:35;7.90;99.90
48728;DHT22;34527;45.618;5.130;2023-11-21T00:56:01;7.90;99.90
48728;DHT22;34527;45.618;5.130;2023-11-21T00:58:28;7.90;99.90
48728;DHT22;34527;45.618;5.130;2023-11-21T01:00:53;7.90;99.90
48728;DHT22;34527;45.618;5.130;2023-11-21T01:03:19;7.80;99.90
48728;DHT22;34527;45.618;5.130;2023-11-21T01:05:45;7.70;99.90
48728;DHT22;34527;45.618;5.130;2023-11-21T01:08:11;7.60;99.90
48728;DHT22;34527;45.618;5.130;2023-11-21T01:10:37;7.60;99.90
48728;DHT22;34527;45.618;5.130;2023-11-21T01:13:03;7.60;99.90
48728;DHT22;34527;45.618;5.130;2023-11-21T01:15:33;7.60;99.90
48728;DHT22;34527;45.618;5.130;2023-11-21T01:17:58;7.60;99.90
48728;DHT22;34527;45.618;5.130;2023-11-21T01:20:24;7.60;99.90
48728;DHT22;34527;45.618;5.130;2023-11-21T01:22:50;7.60;99.90
48728;DHT22;34527;45.618;5.130;2023-11-21T01:25:15;7.60;99.90
48728;DHT22;34527;45.618;5.130;2023-11-21T01:27:42;7.60;99.90
48728;DHT22;34527;45.618;5.130;2023-11-21T01:30:08;7.60;99.90
48728;DHT22;34527;45.618;5.130;2023-11-21T01:32:36;7.70;99.90
48728;DHT22;34527;45.618;5.130;2023-11-21T01:35:03;7.70;99.90
48728;DHT22;34527;45.618;5.130;2023-11-21T01:37:31;7.70;99.90
48728;DHT22;34527;45.618;5.130;2023-11-21T01:39:56;7.80;99.90
48728;DHT22;34527;45.618;5.130;2023-11-21T01:42:22;7.80;99.90
48728;DHT22;34527;45.618;5.130;2023-11-21T01:44:48;7.80;99.90
48728;DHT22;34527;45.618;5.130;2023-11-21T01:47:14;7.80;99.90
48728;DHT22;34527;45.618;5.130;2023-11-21T01:49:43;7.90;99.90
48728;DHT22;34527;45.618;5.130;2023-11-21T01:52:09;7.90;99.90
48728;DHT22;34527;45.618;5.130;2023-11-21T01:54:37;7.80;99.90
48728;DHT22;34527;45.618;5.130;2023-11-21T01:57:04;7.90;99.90
48728;DHT22;34527;45.618;5.130;2023-11-21T01:59:38;7.90;99.90
48728;DHT22;34527;45.618;5.130;2023-11-21T02:02:07;7.90;99.90
48728;DHT22;34527;45.618;5.130;2023-11-21T02:04:34;8.00;99.90
48728;DHT22;34527;45.618;5.130;2023-11-21T02:07:00;7.90;99.90
48728;DHT22;34527;45.618;5.130;2023-11-21T02:09:27;7.90;99.90
48728;DHT22;34527;45.618;5.130;2023-11-21T02:11:54;8.00;99.90
48728;DHT22;34527;45.618;5.130;2023-11-21T02:14:20;8.10;99.90
48728;DHT22;34527;45.618;5.130;2023-11-21T02:16:51;8.10;99.90
48728;DHT22;34527;45.618;5.130;2023-11-21T02:19:21;8.20;99.90
48728;DHT22;34527;45.618;5.130;2023-11-21T02:21:54;8.30;99.90
48728;DHT22;34527;45.618;5.130;2023-11-21T02:24:23;8.30;99.90
48728;DHT22;34527;45.618;5.130;2023-11-21T02:26:49;8.40;99.90
48728;DHT22;34527;45.618;5.130;2023-11-21T02:29:19;8.30;99.90
48728;DHT22;34527;45.618;5.130;2023-11-21T02:31:48;8.40;99.90
48728;DHT22;34527;45.618;5.130;2023-11-21T02:34:15;8.40;99.90
48728;DHT22;34527;45.618;5.130;2023-11-21T02:36:42;8.50;99.90
48728;DHT22;34527;45.618;5.130;2023-11-21T02:39:08;8.50;99.90
48728;DHT22;34527;45.618;5.130;2023-11-21T02:41:34;8.50;99.90
48728;DHT22;34527;45.618;5.130;2023-11-21T02:44:00;8.50;99.90
48728;DHT22;34527;45.618;5.130;2023-11-21T02:46:26;8.50;99.90
48728;DHT22;34527;45.618;5.130;2023-11-21T02:48:52;8.50;99.90
48728;DHT22;34527;45.618;5.130;2023-11-21T02:51:19;8.50;99.90
48728;DHT22;34527;45.618;5.130;2023-11-21T02:53:45;8.50;99.90
48728;DHT22;34527;45.618;5.130;2023-11-21T02:56:12;8.50;99.90
48728;DHT22;34527;45.618;5.130;2023-11-21T02:58:40;8.50;99.90
48728;DHT22;34527;45.618;5.130;2023-11-21T03:01:06;8.50;99.90
48728;DHT22;34527;45.618;5.130;2023-11-21T03:03:33;8.50;99.90
48728;DHT22;34527;45.618;5.130;2023-11-21T03:05:59;8.50;99.90
48728;DHT22;34527;45.618;5.130;2023-11-21T03:08:24;8.50;99.90
48728;DHT22;34527;45.618;5.130;2023-11-21T03:10:50;8.50;99.90
48728;DHT22;34527;45.618;5.130;2023-11-21T03:13:16;8.60;99.90
48728;DHT22;34527;45.618;5.130;2023-11-21T03:15:41;8.60;99.90
48728;DHT22;34527;45.618;5.130;2023-11-21T03:18:08;8.60;99.90
48728;DHT22;34527;45.618;5.130;2023-11-21T03:20:33;8.60;99.90
48728;DHT22;34527;45.618;5.130;2023-11-21T03:23:00;8.60;99.90
48728;DHT22;34527;45.618;5.130;2023-11-21T03:25:26;8.60;99.90
48728;DHT22;34527;45.618;5.130;2023-11-21T03:27:51;8.60;99.90
48728;DHT22;34527;45.618;5.130;2023-11-21T03:30:17;8.60;99.90
48728;DHT22;34527;45.618;5.130;2023-11-21T03:32:43;8.60;99.90
48728;DHT22;34527;45.618;5.130;2023-11-21T03:35:08;8.50;99.90
48728;DHT22;34527;45.618;5.130;2023-11-21T03:37:34;8.60;99.90
48728;DHT22;34527;45.618;5.130;2023-11-21T03:39:59;8.60;99.90
48728;DHT22;34527;45.618;5.130;2023-11-21T03:42:25;8.60;99.90
48728;DHT22;34527;45.618;5.130;2023-11-21T03:44:52;8.60;99.90
48728;DHT22;34527;45.618;5.130;2023-11-21T03:47:18;8.60;99.90
48728;DHT22;34527;45.618;5.130;2023-11-21T03:49:44;8.60;99.90
48728;DHT22;34527;45.618;5.130;2023-11-21T03:52:11;8.60;99.90
48728;DHT22;34527;45.618;5.130;2023-11-21T03:54:37;8.60;99.90
48728;DHT22;34527;45.618;5.130;2023-11-21T03:57:03;8.70;99.90
48728;DHT22;34527;45.618;5.130;2023-11-21T03:59:29;8.70;99.90
48728;DHT22;34527;45.618;5.130;2023-11-21T04:01:57;8.70;99.90
48728;DHT22;34527;45.618;5.130;2023-11-21T04:04:23;8.60;99.90
48728;DHT22;34527;45.618;5.130;2023-11-21T04:06:48;8.60;99.90
48728;DHT22;34527;45.618;5.130;2023-11-21T04:09:14;8.60;99.90
48728;DHT22;34527;45.618;5.130;2023-11-21T04:11:39;8.60;99.90
48728;DHT22;34527;45.618;5.130;2023-11-21T04:14:05;8.60;99.90
48728;DHT22;34527;45.618;5.130;2023-11-21T04:16:31;8.60;99.90
48728;DHT22;34527;45.618;5.130;2023-11-21T04:18:56;8.60;99.90
48728;DHT22;34527;45.618;5.130;2023-11-21T04:21:22;8.60;99.90
48728;DHT22;34527;45.618;5.130;2023-11-21T04:23:49;8.60;99.90
48728;DHT22;34527;45.618;5.130;2023-11-21T04:26:15;8.60;99.90
48728;DHT22;34527;45.618;5.130;2023-11-21T04:28:40;8.60;99.90
48728;DHT22;34527;45.618;5.130;2023-11-21T04:31:06;8.60;99.90
48728;DHT22;34527;45.618;5.130;2023-11-21T04:33:32;8.60;99.90
48728;DHT22;34527;45.618;5.130;2023-11-21T04:35:58;8.60;99.90
48728;DHT22;34527;45.618;5.130;2023-11-21T04:38:24;8.60;99.90
48728;DHT22;34527;45.618;5.130;2023-11-21T04:40:49;8.60;99.90
48728;DHT22;34527;45.618;5.130;2023-11-21T04:43:15;8.60;99.90
48728;DHT22;34527;45.618;5.130;2023-11-21T04:45:40;8.50;99.90
48728;DHT22;34527;45.618;5.130;2023-11-21T04:48:07;8.40;99.90
48728;DHT22;34527;45.618;5.130;2023-11-21T04:50:34;8.50;99.90
48728;DHT22;34527;45.618;5.130;2023-11-21T04:52:59;8.50;99.90
48728;DHT22;34527;45.618;5.130;2023-11-21T04:55:25;8.60;99.90
48728;DHT22;34527;45.618;5.130;2023-11-21T04:57:53;8.60;99.90
48728;DHT22;34527;45.618;5.130;2023-11-21T05:00:19;8.50;99.90
48728;DHT22;34527;45.618;5.130;2023-11-21T05:02:46;8.60;99.90
48728;DHT22;34527;45.618;5.130;2023-11-21T05:05:12;8.60;99.90
48728;DHT22;34527;45.618;5.130;2023-11-21T05:07:39;8.50;99.90
48728;DHT22;34527;45.618;5.130;2023-11-21T05:10:06;8.50;99.90
48728;DHT22;34527;45.618;5.130;2023-11-21T05:12:34;8.50;99.90
48728;DHT22;34527;45.618;5.130;2023-11-21T05:15:06;8.50;99.90
48728;DHT22;34527;45.618;5.130;2023-11-21T05:17:36;8.60;99.90
48728;DHT22;34527;45.618;5.130;2023-11-21T05:20:03;8.60;99.90
48728;DHT22;34527;45.618;5.130;2023-11-21T05:22:29;8.60;99.90
48728;DHT22;34527;45.618;5.130;2023-11-21T05:24:55;8.60;99.90
48728;DHT22;34527;45.618;5.130;2023-11-21T05:27:21;8.60;99.90
48728;DHT22;34527;45.618;5.130;2023-11-21T05:29:46;8.60;99.90
48728;DHT22;34527;45.618;5.130;2023-11-21T05:32:12;8.60;99.90
48728;DHT22;34527;45.618;5.130;2023-11-21T05:34:38;8.60;99.90
48728;DHT22;34527;45.618;5.130;2023-11-21T05:37:03;8.60;99.90
48728;DHT22;34527;45.618;5.130;2023-11-21T05:39:30;8.60;99.90
48728;DHT22;34527;45.618;5.130;2023-11-21T05:41:56;8.60;99.90
48728;DHT22;34527;45.618;5.130;2023-11-21T05:44:23;8.60;99.90
48728;DHT22;34527;45.618;5.130;2023-11-21T05:46:49;8.60;99.90
48728;DHT22;34527;45.618;5.130;2023-11-21T05:49:15;8.60;99.90
48728;DHT22;34527;45.618;5.130;2023-11-21T05:51:41;8.60;99.90
48728;DHT22;34527;45.618;5.130;2023-11-21T05:54:07;8.60;99.90
48728;DHT22;34527;45.618;5.130;2023-11-21T05:56:33;8.60;99.90
48728;DHT22;34527;45.618;5.130;2023-11-21T05:58:59;8.60;99.90
48728;DHT22;34527;45.618;5.130;2023-11-21T06:01:25;8.60;99.90
48728;DHT22;34527;45.618;5.130;2023-11-21T06:03:53;8.60;99.90
48728;DHT22;34527;45.618;5.130;2023-11-21T06:06:20;8.60;99.90
48728;DHT22;34527;45.618;5.130;2023-11-21T06:08:50;8.70;99.90
48728;DHT22;34527;45.618;5.130;2023-11-21T06:11:16;8.60;99.90
48728;DHT22;34527;45.618;5.130;2023-11-21T06:13:42;8.60;99.90
48728;DHT22;34527;45.618;5.130;2023-11-21T06:16:08;8.60;99.90
48728;DHT22;34527;45.618;5.130;2023-11-21T06:18:34;8.60;99.90
48728;DHT22;34527;45.618;5.130;2023-11-21T06:21:00;8.70;99.90
48728;DHT22;34527;45.618;5.130;2023-11-21T06:23:26;8.70;99.90
48728;DHT22;34527;45.618;5.130;2023-11-21T06:25:52;8.70;99.90
48728;DHT22;34527;45.618;5.130;2023-11-21T06:28:18;8.60;99.90
48728;DHT22;34527;45.618;5.130;2023-11-21T06:30:44;8.60;99.90
48728;DHT22;34527;45.618;5.130;2023-11-21T06:33:10;8.70;99.90
48728;DHT22;34527;45.618;5.130;2023-11-21T06:35:36;8.70;99.90
48728;DHT22;34527;45.618;5.130;2023-11-21T06:38:02;8.70;99.90
48728;DHT22;34527;45.618;5.130;2023-11-21T06:40:28;8.70;99.90
48728;DHT22;34527;45.618;5.130;2023-11-21T06:42:53;8.70;99.90
48728;DHT22;34527;45.618;5.130;2023-11-21T06:45:19;8.70;99.90
48728;DHT22;34527;45.618;5.130;2023-11-21T06:47:45;8.70;99.90
48728;DHT22;34527;45.618;5.130;2023-11-21T06:50:11;8.70;99.90
48728;DHT22;34527;45.618;5.130;2023-11-21T06:52:37;8.70;99.90
48728;DHT22;34527;45.618;5.130;2023-11-21T06:55:03;8.70;99.90
48728;DHT22;34527;45.618;5.130;2023-11-21T06:57:28;8.70;99.90
48728;DHT22;34527;45.618;5.130;2023-11-21T06:59:54;8.70;99.90
48728;DHT22;34527;45.618;5.130;2023-11-21T07:02:20;8.70;99.90
48728;DHT22;34527;45.618;5.130;2023-11-21T07:04:46;8.70;99.90
48728;DHT22;34527;45.618;5.130;2023-11-21T07:07:12;8.70;99.90
48728;DHT22;34527;45.618;5.130;2023-11-21T07:09:38;8.80;99.90
48728;DHT22;34527;45.618;5.130;2023-11-21T07:12:04;8.80;99.90
48728;DHT22;34527;45.618;5.130;2023-11-21T07:14:31;8.80;99.90
48728;DHT22;34527;45.618;5.130;2023-11-21T07:16:57;8.80;99.90
48728;DHT22;34527;45.618;5.130;2023-11-21T07:19:23;8.70;99.90
48728;DHT22;34527;45.618;5.130;2023-11-21T07:21:49;8.80;99.90
48728;DHT22;34527;45.618;5.130;2023-11-21T07:24:17;8.80;99.90
48728;DHT22;34527;45.618;5.130;2023-11-21T07:26:43;8.80;99.90
48728;DHT22;34527;45.618;5.130;2023-11-21T07:29:09;8.80;99.90
48728;DHT22;34527;45.618;5.130;2023-11-21T07:31:36;8.90;99.90
48728;DHT22;34527;45.618;5.130;2023-11-21T07:34:02;8.90;99.90
48728;DHT22;34527;45.618;5.130;2023-11-21T07:36:27;8.90;99.90
48728;DHT22;34527;45.618;5.130;2023-11-21T07:38:54;8.90;99.90
48728;DHT22;34527;45.618;5.130;2023-11-21T07:41:20;8.90;99.90
48728;DHT22;34527;45.618;5.130;2023-11-21T07:43:46;8.90;99.90
48728;DHT22;34527;45.618;5.130;2023-11-21T07:46:12;8.90;99.90
48728;DHT22;34527;45.618;5.130;2023-11-21T07:48:39;8.90;99.90
48728;DHT22;34527;45.618;5.130;2023-11-21T07:51:05;9.00;99.90
48728;DHT22;34527;45.618;5.130;2023-11-21T07:53:32;8.90;99.90
48728;DHT22;34527;45.618;5.130;2023-11-21T07:56:05;9.00;99.90
48728;DHT22;34527;45.618;5.130;2023-11-21T07:58:31;9.00;99.90
48728;DHT22;34527;45.618;5.130;2023-11-21T08:00:59;9.10;99.90
48728;DHT22;34527;45.618;5.130;2023-11-21T08:03:25;9.00;99.90
48728;DHT22;34527;45.618;5.130;2023-11-21T08:05:52;9.10;99.90
48728;DHT22;34527;45.618;5.130;2023-11-21T08:08:18;9.10;99.90
48728;DHT22;34527;45.618;5.130;2023-11-21T08:10:44;9.10;99.90
48728;DHT22;34527;45.618;5.130;2023-11-21T08:13:24;9.10;99.90
48728;DHT22;34527;45.618;5.130;2023-11-21T08:15:53;9.10;99.90
48728;DHT22;34527;45.618;5.130;2023-11-21T08:18:19;9.10;99.90
48728;DHT22;34527;45.618;5.130;2023-11-21T08:20:44;9.10;99.90
48728;DHT22;34527;45.618;5.130;2023-11-21T08:23:16;9.10;99.90
48728;DHT22;34527;45.618;5.130;2023-11-21T08:25:45;9.20;99.90
48728;DHT22;34527;45.618;5.130;2023-11-21T08:28:11;9.20;99.90
48728;DHT22;34527;45.618;5.130;2023-11-21T08:30:36;9.20;99.90
48728;DHT22;34527;45.618;5.130;2023-11-21T08:33:02;9.10;99.90
48728;DHT22;34527;45.618;5.130;2023-11-21T08:35:29;9.20;99.90
48728;DHT22;34527;45.618;5.130;2023-11-21T08:37:55;9.10;99.90
48728;DHT22;34527;45.618;5.130;2023-11-21T08:40:21;9.10;99.90
48728;DHT22;34527;45.618;5.130;2023-11-21T08:42:50;9.20;99.90
48728;DHT22;34527;45.618;5.130;2023-11-21T08:45:18;9.10;99.90
48728;DHT22;34527;45.618;5.130;2023-11-21T08:47:44;9.20;99.90
48728;DHT22;34527;45.618;5.130;2023-11-21T08:50:10;9.10;99.90
48728;DHT22;34527;45.618;5.130;2023-11-21T08:52:38;9.20;99.90
48728;DHT22;34527;45.618;5.130;2023-11-21T08:55:04;9.10;99.90
48728;DHT22;34527;45.618;5.130;2023-11-21T08:57:36;9.20;99.90
48728;DHT22;34527;45.618;5.130;2023-11-21T09:00:06;9.20;99.90
48728;DHT22;34527;45.618;5.130;2023-11-21T09:02:41;9.20;99.90
48728;DHT22;34527;45.618;5.130;2023-11-21T09:05:10;9.10;99.90
48728;DHT22;34527;45.618;5.130;2023-11-21T09:07:37;9.20;99.90
48728;DHT22;34527;45.618;5.130;2023-11-21T09:10:04;9.20;99.90
48728;DHT22;34527;45.618;5.130;2023-11-21T09:12:33;9.30;99.90
48728;DHT22;34527;45.618;5.130;2023-11-21T09:15:07;9.20;99.90
48728;DHT22;34527;45.618;5.130;2023-11-21T09:17:34;9.20;99.90
48728;DHT22;34527;45.618;5.130;2023-11-21T09:20:00;9.20;99.90
48728;DHT22;34527;45.618;5.130;2023-11-21T09:22:25;9.10;99.90
48728;DHT22;34527;45.618;5.130;2023-11-21T09:24:51;9.10;99.90
48728;DHT22;34527;45.618;5.130;2023-11-21T09:27:17;9.20;99.90
48728;DHT22;34527;45.618;5.130;2023-11-21T09:29:43;9.00;99.90
48728;DHT22;34527;45.618;5.130;2023-11-21T09:32:09;9.00;99.90
48728;DHT22;34527;45.618;5.130;2023-11-21T09:34:38;8.90;99.90
48728;DHT22;34527;45.618;5.130;2023-11-21T09:37:04;8.90;99.90
48728;DHT22;34527;45.618;5.130;2023-11-21T09:39:32;8.90;99.90
48728;DHT22;34527;45.618;5.130;2023-11-21T09:42:17;8.90;99.90
48728;DHT22;34527;45.618;5.130;2023-11-21T09:44:50;8.90;99.90
48728;DHT22;34527;45.618;5.130;2023-11-21T09:47:17;8.90;99.90
48728;DHT22;34527;45.618;5.130;2023-11-21T09:49:49;8.90;99.90
48728;DHT22;34527;45.618;5.130;2023-11-21T09:52:22;8.90;99.90
48728;DHT22;34527;45.618;5.130;2023-11-21T09:54:51;8.90;99.90
48728;DHT22;34527;45.618;5.130;2023-11-21T09:57:23;8.90;99.90
48728;DHT22;34527;45.618;5.130;2023-11-21T09:59:51;8.90;99.90
48728;DHT22;34527;45.618;5.130;2023-11-21T10:02:22;8.90;99.90
48728;DHT22;34527;45.618;5.130;2023-11-21T10:04:48;8.90;99.90
48728;DHT22;34527;45.618;5.130;2023-11-21T10:07:14;8.90;99.90
48728;DHT22;34527;45.618;5.130;2023-11-21T10:09:42;9.00;99.90
48728;DHT22;34527;45.618;5.130;2023-11-21T10:12:09;9.10;99.90
48728;DHT22;34527;45.618;5.130;2023-11-21T10:14:37;9.20;99.90
48728;DHT22;34527;45.618;5.130;2023-11-21T10:17:05;9.20;99.90
48728;DHT22;34527;45.618;5.130;2023-11-21T10:19:35;9.10;99.90
48728;DHT22;34527;45.618;5.130;2023-11-21T10:22:02;9.20;99.90
48728;DHT22;34527;45.618;5.130;2023-11-21T10:24:29;9.20;99.90
48728;DHT22;34527;45.618;5.130;2023-11-21T10:26:54;9.20;99.90
48728;DHT22;34527;45.618;5.130;2023-11-21T10:29:20;9.20;99.90
48728;DHT22;34527;45.618;5.130;2023-11-21T10:31:49;9.30;99.90
48728;DHT22;34527;45.618;5.130;2023-11-21T10:34:20;9.30;99.90
48728;DHT22;34527;45.618;5.130;2023-11-21T10:36:46;9.30;99.90
48728;DHT22;34527;45.618;5.130;2023-11-21T10:39:17;9.30;99.90
48728;DHT22;34527;45.618;5.130;2023-11-21T10:41:49;9.30;99.90
48728;DHT22;34527;45.618;5.130;2023-11-21T10:44:17;9.30;99.90
48728;DHT22;34527;45.618;5.130;2023-11-21T10:46:48;9.40;99.90
48728;DHT22;34527;45.618;5.130;2023-11-21T10:49:20;9.50;99.90
48728;DHT22;34527;45.618;5.130;2023-11-21T10:51:46;9.50;99.90
48728;DHT22;34527;45.618;5.130;2023-11-21T10:54:18;9.60;99.90
48728;DHT22;34527;45.618;5.130;2023-11-21T10:56:44;9.60;99.90
48728;DHT22;34527;45.618;5.130;2023-11-21T10:59:10;9.60;99.90
48728;DHT22;34527;45.618;5.130;2023-11-21T11:01:45;9.70;99.90
48728;DHT22;34527;45.618;5.130;2023-11-21T11:04:12;9.70;99.90
48728;DHT22;34527;45.618;5.130;2023-11-21T11:06:45;9.70;99.90
48728;DHT22;34527;45.618;5.130;2023-11-21T11:09:13;9.70;99.90
48728;DHT22;34527;45.618;5.130;2023-11-21T11:11:40;9.80;99.90
48728;DHT22;34527;45.618;5.130;2023-11-21T11:14:12;9.90;99.90
48728;DHT22;34527;45.618;5.130;2023-11-21T11:16:39;9.90;99.90
48728;DHT22;34527;45.618;5.130;2023-11-21T11:19:09;9.90;99.90
48728;DHT22;34527;45.618;5.130;2023-11-21T11:22:06;9.90;99.90
48728;DHT22;34527;45.618;5.130;2023-11-21T11:27:54;9.80;99.90
48728;DHT22;34527;45.618;5.130;2023-11-21T11:33:38;9.90;99.90
48728;DHT22;34527;45.618;5.130;2023-11-21T11:38:34;9.80;99.90
48728;DHT22;34527;45.618;5.130;2023-11-21T11:41:05;9.80;99.90
48728;DHT22;34527;45.618;5.130;2023-11-21T11:43:31;9.60;99.90
48728;DHT22;34527;45.618;5.130;2023-11-21T11:46:10;9.50;99.90
48728;DHT22;34527;45.618;5.130;2023-11-21T11:48:39;9.30;99.90
48728;DHT22;34527;45.618;5.130;2023-11-21T11:51:13;9.40;99.90
48728;DHT22;34527;45.618;5.130;2023-11-21T11:53:47;9.30;99.90
48728;DHT22;34527;45.618;5.130;2023-11-21T11:56:27;9.30;99.90
48728;DHT22;34527;45.618;5.130;2023-11-21T11:58:55;9.30;99.90
48728;DHT22;34527;45.618;5.130;2023-11-21T12:01:22;9.40;99.90
48728;DHT22;34527;45.618;5.130;2023-11-21T12:07:00;9.50;99.90
48728;DHT22;34527;45.618;5.130;2023-11-21T12:09:28;9.60;99.90
48728;DHT22;34527;45.618;5.130;2023-11-21T12:11:56;9.70;99.90
48728;DHT22;34527;45.618;5.130;2023-11-21T12:14:24;9.80;99.90
48728;DHT22;34527;45.618;5.130;2023-11-21T12:16:50;9.80;99.90
48728;DHT22;34527;45.618;5.130;2023-11-21T12:19:17;9.80;99.90
48728;DHT22;34527;45.618;5.130;2023-11-21T12:21:43;9.80;99.90
48728;DHT22;34527;45.618;5.130;2023-11-21T12:24:14;9.90;99.90
48728;DHT22;34527;45.618;5.130;2023-11-21T12:26:40;9.90;99.90
48728;DHT22;34527;45.618;5.130;2023-11-21T12:29:06;9.90;99.90
48728;DHT22;34527;45.618;5.130;2023-11-21T12:31:33;10.00;99.90
48728;DHT22;34527;45.618;5.130;2023-11-21T12:34:00;10.00;99.90
48728;DHT22;34527;45.618;5.130;2023-11-21T12:36:25;10.00;99.90
48728;DHT22;34527;45.618;5.130;2023-11-21T12:38:51;9.90;99.90
48728;DHT22;34527;45.618;5.130;2023-11-21T12:41:17;9.90;99.90
48728;DHT22;34527;45.618;5.130;2023-11-21T12:43:43;9.90;99.90
48728;DHT22;34527;45.618;5.130;2023-11-21T12:46:10;9.90;99.90
48728;DHT22;34527;45.618;5.130;2023-11-21T12:48:42;9.90;99.90
48728;DHT22;34527;45.618;5.130;2023-11-21T12:51:09;9.90;99.90
48728;DHT22;34527;45.618;5.130;2023-11-21T12:53:40;9.90;99.90
48728;DHT22;34527;45.618;5.130;2023-11-21T12:56:15;9.90;99.90
48728;DHT22;34527;45.618;5.130;2023-11-21T12:58:44;9.90;99.90
48728;DHT22;34527;45.618;5.130;2023-11-21T13:01:13;9.90;99.90
48728;DHT22;34527;45.618;5.130;2023-11-21T13:03:43;9.80;99.90
48728;DHT22;34527;45.618;5.130;2023-11-21T13:06:11;9.80;99.90
48728;DHT22;34527;45.618;5.130;2023-11-21T13:08:38;9.80;99.90
48728;DHT22;34527;45.618;5.130;2023-11-21T13:11:05;9.80;99.90
48728;DHT22;34527;45.618;5.130;2023-11-21T13:13:31;9.70;99.90
48728;DHT22;34527;45.618;5.130;2023-11-21T13:16:00;9.80;99.90
48728;DHT22;34527;45.618;5.130;2023-11-21T13:18:27;9.80;99.90
48728;DHT22;34527;45.618;5.130;2023-11-21T13:20:58;9.80;99.90
48728;DHT22;34527;45.618;5.130;2023-11-21T13:23:24;9.90;99.90
48728;DHT22;34527;45.618;5.130;2023-11-21T13:25:51;10.00;99.90
48728;DHT22;34527;45.618;5.130;2023-11-21T13:28:17;10.00;99.90
48728;DHT22;34527;45.618;5.130;2023-11-21T13:30:47;10.10;99.90
48728;DHT22;34527;45.618;5.130;2023-11-21T13:33:14;10.10;99.90
48728;DHT22;34527;45.618;5.130;2023-11-21T13:35:44;10.10;99.90
48728;DHT22;34527;45.618;5.130;2023-11-21T13:38:15;10.10;99.90
48728;DHT22;34527;45.618;5.130;2023-11-21T13:40:47;10.00;99.90
48728;DHT22;34527;45.618;5.130;2023-11-21T13:43:17;9.90;99.90
48728;DHT22;34527;45.618;5.130;2023-11-21T13:45:48;9.90;99.90
48728;DHT22;34527;45.618;5.130;2023-11-21T13:48:23;9.80;99.90
48728;DHT22;34527;45.618;5.130;2023-11-21T13:50:57;9.70;99.90
48728;DHT22;34527;45.618;5.130;2023-11-21T13:53:34;9.70;99.90
48728;DHT22;34527;45.618;5.130;2023-11-21T13:56:03;9.60;99.90
48728;DHT22;34527;45.618;5.130;2023-11-21T13:58:29;9.60;99.90
48728;DHT22;34527;45.618;5.130;2023-11-21T14:01:12;9.60;99.90
48728;DHT22;34527;45.618;5.130;2023-11-21T14:03:56;9.50;99.90
48728;DHT22;34527;45.618;5.130;2023-11-21T14:06:37;9.50;99.90
48728;DHT22;34527;45.618;5.130;2023-11-21T14:09:16;9.40;99.90
48728;DHT22;34527;45.618;5.130;2023-11-21T14:11:50;9.50;99.90
48728;DHT22;34527;45.618;5.130;2023-11-21T14:14:18;9.60;99.90
48728;DHT22;34527;45.618;5.130;2023-11-21T14:16:44;9.70;99.90
48728;DHT22;34527;45.618;5.130;2023-11-21T14:19:10;9.80;99.90
48728;DHT22;34527;45.618;5.130;2023-11-21T14:21:41;9.70;99.90
48728;DHT22;34527;45.618;5.130;2023-11-21T14:24:09;9.70;99.90
48728;DHT22;34527;45.618;5.130;2023-11-21T14:26:35;9.70;99.90
48728;DHT22;34527;45.618;5.130;2023-11-21T14:29:01;9.70;99.90
48728;DHT22;34527;45.618;5.130;2023-11-21T14:31:28;9.70;99.90
48728;DHT22;34527;45.618;5.130;2023-11-21T14:33:56;9.70;99.90
48728;DHT22;34527;45.618;5.130;2023-11-21T14:36:22;9.70;99.90
48728;DHT22;34527;45.618;5.130;2023-11-21T14:38:49;9.70;99.90
48728;DHT22;34527;45.618;5.130;2023-11-21T14:41:15;9.70;99.90
48728;DHT22;34527;45.618;5.130;2023-11-21T14:43:40;9.70;99.90
48728;DHT22;34527;45.618;5.130;2023-11-21T14:46:07;9.70;99.90
48728;DHT22;34527;45.618;5.130;2023-11-21T14:48:35;9.60;99.90
48728;DHT22;34527;45.618;5.130;2023-11-21T14:51:13;9.60;99.90
48728;DHT22;34527;45.618;5.130;2023-11-21T14:53:39;9.60;99.90
48728;DHT22;34527;45.618;5.130;2023-11-21T14:56:23;9.50;99.90
48728;DHT22;34527;45.618;5.130;2023-11-21T14:59:00;9.50;99.90
48728;DHT22;34527;45.618;5.130;2023-11-21T15:01:32;9.40;99.90
48728;DHT22;34527;45.618;5.130;2023-11-21T15:04:20;9.40;99.90
48728;DHT22;34527;45.618;5.130;2023-11-21T15:06:58;9.30;99.90
48728;DHT22;34527;45.618;5.130;2023-11-21T15:09:24;9.30;99.90
48728;DHT22;34527;45.618;5.130;2023-11-21T15:12:07;9.30;99.90
48728;DHT22;34527;45.618;5.130;2023-11-21T15:14:46;9.30;99.90
48728;DHT22;34527;45.618;5.130;2023-11-21T15:17:14;9.20;99.90
48728;DHT22;34527;45.618;5.130;2023-11-21T15:19:55;9.20;99.90
48728;DHT22;34527;45.618;5.130;2023-11-21T15:22:21;9.30;99.90
48728;DHT22;34527;45.618;5.130;2023-11-21T15:24:47;9.30;99.90
48728;DHT22;34527;45.618;5.130;2023-11-21T15:27:15;9.30;99.90
48728;DHT22;34527;45.618;5.130;2023-11-21T15:29:44;9.30;99.90
48728;DHT22;34527;45.618;5.130;2023-11-21T15:32:10;9.30;99.90
48728;DHT22;34527;45.618;5.130;2023-11-21T15:34:37;9.40;99.90
48728;DHT22;34527;45.618;5.130;2023-11-21T15:37:04;9.40;99.90
48728;DHT22;34527;45.618;5.130;2023-11-21T15:39:31;9.40;99.90
48728;DHT22;34527;45.618;5.130;2023-11-21T15:41:57;9.30;99.90
48728;DHT22;34527;45.618;5.130;2023-11-21T15:44:24;9.30;99.90
48728;DHT22;34527;45.618;5.130;2023-11-21T15:46:51;9.30;99.90
48728;DHT22;34527;45.618;5.130;2023-11-21T15:49:17;9.30;99.90
48728;DHT22;34527;45.618;5.130;2023-11-21T15:51:46;9.30;99.90
48728;DHT22;34527;45.618;5.130;2023-11-21T15:54:18;9.30;99.90
48728;DHT22;34527;45.618;5.130;2023-11-21T15:56:45;9.30;99.90
48728;DHT22;34527;45.618;5.130;2023-11-21T15:59:11;9.20;99.90